createdAt,value
2019-02-27T00:01:08.055Z,7.57
2019-02-27T00:03:40.140Z,8.97
2019-02-27T00:06:12.934Z,7.00
2019-02-27T00:08:46.850Z,8.50
2019-02-27T00:11:18.854Z,7.67
2019-02-27T00:13:51.126Z,9.43
2019-02-27T00:16:23.211Z,8.77
2019-02-27T00:18:58.670Z,9.97
2019-02-27T00:21:28.005Z,10.23
2019-02-27T00:23:59.201Z,8.77
2019-02-27T00:26:31.845Z,8.73
2019-02-27T00:29:03.262Z,9.53
2019-02-27T00:31:34.439Z,10.40
2019-02-27T00:34:05.938Z,5.13
2019-02-27T00:36:37.799Z,7.80
2019-02-27T00:39:09.153Z,6.80
2019-02-27T00:41:43.118Z,8.93
2019-02-27T00:44:14.578Z,7.53
2019-02-27T00:46:46.366Z,9.80
2019-02-27T00:49:18.178Z,9.07
2019-02-27T00:51:49.955Z,6.00
2019-02-27T00:54:21.252Z,9.13
2019-02-27T00:56:53.228Z,9.97
2019-02-27T00:59:24.970Z,11.10
2019-02-27T01:01:57.565Z,8.13
2019-02-27T01:04:29.842Z,9.00
2019-02-27T01:07:01.075Z,6.80
2019-02-27T01:09:33.049Z,7.50
2019-02-27T01:12:04.327Z,10.00
2019-02-27T01:14:37.081Z,13.60
2019-02-27T01:17:09.096Z,13.33
2019-02-27T01:19:42.650Z,7.63
2019-02-27T01:22:13.937Z,8.73
2019-02-27T01:24:45.109Z,5.73
2019-02-27T01:27:17.036Z,9.07
2019-02-27T01:29:50.758Z,16.07
2019-02-27T01:32:21.378Z,6.57
2019-02-27T01:34:53.049Z,10.27
2019-02-27T01:37:31.340Z,8.97
2019-02-27T01:40:00.278Z,15.77
2019-02-27T01:42:32.921Z,10.37
2019-02-27T01:45:07.187Z,15.00
2019-02-27T01:47:39.013Z,9.80
2019-02-27T01:50:33.841Z,8.27
2019-02-27T01:53:07.419Z,9.80
2019-02-27T01:55:40.994Z,6.10
2019-02-27T01:58:12.850Z,9.70
2019-02-27T02:00:44.087Z,14.40
2019-02-27T02:03:16.055Z,10.60
2019-02-27T02:05:48.106Z,10.80
2019-02-27T02:08:20.126Z,7.40
2019-02-27T02:10:54.126Z,12.37
2019-02-27T02:13:50.330Z,6.63
2019-02-27T02:16:54.708Z,9.73
2019-02-27T02:19:53.990Z,12.80
2019-02-27T02:23:14.304Z,9.40
2019-02-27T02:26:22.288Z,7.67
2019-02-27T02:29:24.270Z,7.50
2019-02-27T02:32:17.109Z,9.60
2019-02-27T02:35:26.730Z,9.57
2019-02-27T02:38:54.088Z,20.30
2019-02-27T02:41:59.956Z,17.70
2019-02-27T02:45:15.332Z,8.20
2019-02-27T02:48:31.072Z,4.87
2019-02-27T02:51:44.724Z,8.40
2019-02-27T02:54:38.137Z,7.03
2019-02-27T02:57:57.840Z,9.13
2019-02-27T03:01:15.211Z,9.90
2019-02-27T03:04:37.256Z,9.60
2019-02-27T03:07:26.326Z,10.53
2019-02-27T03:10:35.643Z,10.47
2019-02-27T03:13:31.366Z,5.57
2019-02-27T03:16:24.787Z,6.67
2019-02-27T03:19:41.224Z,7.93
2019-02-27T03:22:47.852Z,9.20
2019-02-27T03:25:50.340Z,10.33
2019-02-27T03:29:16.972Z,12.33
2019-02-27T03:32:17.220Z,9.70
2019-02-27T03:35:28.014Z,9.80
2019-02-27T03:38:23.855Z,11.93
2019-02-27T03:41:27.732Z,12.13
2019-02-27T03:44:27.586Z,7.60
2019-02-27T03:47:29.683Z,10.60
2019-02-27T03:50:29.574Z,7.33
2019-02-27T03:53:35.094Z,10.27
2019-02-27T03:57:18.918Z,10.07
2019-02-27T04:00:19.296Z,16.73
2019-02-27T04:03:26.461Z,11.43
2019-02-27T04:06:40.756Z,11.30
2019-02-27T04:09:12.244Z,18.13
2019-02-27T04:11:44.202Z,8.90
2019-02-27T04:14:32.753Z,8.30
2019-02-27T04:17:07.030Z,11.03
2019-02-27T04:19:39.254Z,18.87
2019-02-27T04:22:11.111Z,13.27
2019-02-27T04:24:43.089Z,28.40
2019-02-27T04:27:19.971Z,15.10
2019-02-27T04:29:49.416Z,12.07
2019-02-27T04:32:21.789Z,19.17
2019-02-27T04:34:52.958Z,18.37
2019-02-27T04:37:24.164Z,18.50
2019-02-27T04:39:55.959Z,14.90
2019-02-27T04:42:28.767Z,36.73
2019-02-27T04:44:59.963Z,16.17
2019-02-27T04:47:31.401Z,17.00
2019-02-27T04:50:02.951Z,17.60
2019-02-27T04:52:34.364Z,14.43
2019-02-27T04:55:06.015Z,14.27
2019-02-27T04:57:37.210Z,13.80
2019-02-27T05:00:09.315Z,14.93
2019-02-27T05:02:42.573Z,15.70
2019-02-27T05:05:15.304Z,14.63
2019-02-27T05:07:54.097Z,12.13
2019-02-27T05:10:23.318Z,23.97
2019-02-27T05:12:55.905Z,15.93
2019-02-27T05:15:27.793Z,19.83
2019-02-27T05:17:59.058Z,25.77
2019-02-27T05:20:30.894Z,22.83
2019-02-27T05:23:02.079Z,11.67
2019-02-27T05:25:34.133Z,16.03
2019-02-27T05:28:06.013Z,19.90
2019-02-27T05:30:37.786Z,10.87
2019-02-27T05:33:09.106Z,14.17
2019-02-27T05:35:42.538Z,9.43
2019-02-27T05:38:13.991Z,18.73
2019-02-27T05:40:45.229Z,11.53
2019-02-27T05:43:17.114Z,14.00
2019-02-27T05:45:49.094Z,12.23
2019-02-27T05:48:21.024Z,15.53
2019-02-27T05:50:52.988Z,11.67
2019-02-27T05:53:24.921Z,11.93
2019-02-27T05:55:56.113Z,10.70
2019-02-27T05:58:28.368Z,19.57
2019-02-27T06:01:02.099Z,10.53
2019-02-27T06:03:33.180Z,15.33
2019-02-27T06:06:06.818Z,11.73
2019-02-27T06:08:40.004Z,13.13
2019-02-27T06:11:12.778Z,18.10
2019-02-27T06:13:45.040Z,15.50
2019-02-27T06:16:16.990Z,15.83
2019-02-27T06:18:48.360Z,13.43
2019-02-27T06:21:20.197Z,15.17
2019-02-27T06:23:51.960Z,16.93
2019-02-27T06:26:24.769Z,16.37
2019-02-27T06:28:55.974Z,13.00
2019-02-27T06:31:28.851Z,16.93
2019-02-27T06:34:00.258Z,16.33
2019-02-27T06:36:31.604Z,15.03
2019-02-27T06:39:04.646Z,13.77
2019-02-27T06:41:35.953Z,13.10
2019-02-27T06:44:07.968Z,12.90
2019-02-27T06:46:39.228Z,17.93
2019-02-27T06:49:11.077Z,16.20
2019-02-27T06:51:43.860Z,18.50
2019-02-27T06:54:18.492Z,19.67
2019-02-27T06:56:51.054Z,18.77
2019-02-27T06:59:25.219Z,24.43
2019-02-27T07:01:59.095Z,15.30
2019-02-27T07:04:30.445Z,20.73
2019-02-27T07:07:07.053Z,29.40
2019-02-27T07:09:40.532Z,17.00
2019-02-27T07:12:12.848Z,14.27
2019-02-27T07:14:46.116Z,16.77
2019-02-27T07:17:19.110Z,19.50
2019-02-27T07:19:52.104Z,18.23
2019-02-27T07:22:25.114Z,15.33
2019-02-27T07:24:58.105Z,21.67
2019-02-27T07:27:31.274Z,14.00
2019-02-27T07:30:04.897Z,20.13
2019-02-27T07:32:37.466Z,19.53
2019-02-27T07:35:11.347Z,14.17
2019-02-27T07:37:47.233Z,16.33
2019-02-27T07:40:17.112Z,19.60
2019-02-27T07:42:51.888Z,20.20
2019-02-27T07:45:25.419Z,15.07
2019-02-27T07:47:58.657Z,19.70
2019-02-27T07:50:29.928Z,15.70
2019-02-27T07:53:03.275Z,18.33
2019-02-27T07:55:35.376Z,18.83
2019-02-27T07:58:07.371Z,18.93
2019-02-27T08:00:40.409Z,26.70
2019-02-27T08:03:13.370Z,22.90
2019-02-27T08:05:46.423Z,27.13
2019-02-27T08:08:23.305Z,32.90
2019-02-27T08:10:55.202Z,17.77
2019-02-27T08:13:29.710Z,20.30
2019-02-27T08:16:04.249Z,16.87
2019-02-27T08:18:37.661Z,13.57
2019-02-27T08:21:10.407Z,18.00
2019-02-27T08:23:43.544Z,14.93
2019-02-27T08:26:18.455Z,20.80
2019-02-27T08:28:52.203Z,11.20
2019-02-27T08:31:27.914Z,13.50
2019-02-27T08:33:58.427Z,16.23
2019-02-27T08:36:30.223Z,14.97
2019-02-27T08:39:06.221Z,12.80
2019-02-27T08:41:37.517Z,12.60
2019-02-27T08:44:08.800Z,9.57
2019-02-27T08:46:42.295Z,16.87
2019-02-27T08:49:18.803Z,7.37
2019-02-27T08:51:50.670Z,9.47
2019-02-27T08:54:22.560Z,8.87
2019-02-27T08:56:54.417Z,8.57
2019-02-27T08:59:28.377Z,8.03
2019-02-27T09:02:01.974Z,6.93
2019-02-27T09:04:33.484Z,9.20
2019-02-27T09:07:07.577Z,7.97
2019-02-27T09:09:40.856Z,8.57
2019-02-27T09:12:14.063Z,11.57
2019-02-27T09:14:46.857Z,7.50
2019-02-27T09:17:19.656Z,7.00
2019-02-27T09:19:59.360Z,11.43
2019-02-27T09:22:33.861Z,8.60
2019-02-27T09:25:07.855Z,5.83
2019-02-27T09:27:40.904Z,6.60
2019-02-27T09:30:14.834Z,7.53
2019-02-27T09:32:46.770Z,5.97
2019-02-27T09:35:19.969Z,6.53
2019-02-27T09:37:52.704Z,9.03
2019-02-27T09:40:29.414Z,7.80
2019-02-27T09:43:03.794Z,2.90
2019-02-27T09:45:36.693Z,5.73
2019-02-27T09:48:11.449Z,9.80
2019-02-27T09:50:48.444Z,3.87
2019-02-27T09:53:18.869Z,5.10
2019-02-27T09:55:54.377Z,1.60
2019-02-27T09:58:26.298Z,3.60
2019-02-27T10:01:03.675Z,2.70
2019-02-27T10:03:37.314Z,5.43
2019-02-27T10:06:11.087Z,13.03
2019-02-27T10:08:43.866Z,8.50
2019-02-27T10:11:19.542Z,5.77
2019-02-27T10:13:53.007Z,2.73
2019-02-27T10:16:26.663Z,6.23
2019-02-27T10:18:59.114Z,4.37
2019-02-27T10:21:30.411Z,4.60
2019-02-27T10:24:04.869Z,3.60
2019-02-27T10:26:35.983Z,4.50
2019-02-27T10:29:08.023Z,2.87
2019-02-27T10:31:43.758Z,3.87
2019-02-27T10:34:17.583Z,3.83
2019-02-27T10:36:52.130Z,3.50
2019-02-27T10:39:24.945Z,5.30
2019-02-27T10:41:56.146Z,4.53
2019-02-27T10:44:27.529Z,4.70
2019-02-27T10:47:00.048Z,2.00
2019-02-27T10:49:33.206Z,2.40
2019-02-27T10:52:07.397Z,4.40
2019-02-27T10:54:40.281Z,5.50
2019-02-27T10:57:13.021Z,12.23
2019-02-27T10:59:46.069Z,4.03
2019-02-27T11:02:19.817Z,6.90
2019-02-27T11:04:52.633Z,6.60
2019-02-27T11:07:25.667Z,7.73
2019-02-27T11:10:00.690Z,5.23
2019-02-27T11:12:33.083Z,7.80
2019-02-27T11:15:08.180Z,2.87
2019-02-27T11:17:40.413Z,7.10
2019-02-27T11:20:13.142Z,6.93
2019-02-27T11:22:46.296Z,2.80
2019-02-27T11:25:22.501Z,3.27
2019-02-27T11:27:54.134Z,6.43
2019-02-27T11:30:28.928Z,4.67
2019-02-27T11:33:00.115Z,2.90
2019-02-27T11:35:33.317Z,2.27
2019-02-27T11:38:05.970Z,6.60
2019-02-27T11:40:41.539Z,5.37
2019-02-27T11:43:11.260Z,3.20
2019-02-27T11:45:43.609Z,2.27
2019-02-27T11:48:15.182Z,2.70
2019-02-27T11:50:50.975Z,8.90
2019-02-27T11:53:24.234Z,4.60
2019-02-27T11:55:55.567Z,4.80
2019-02-27T11:58:29.222Z,4.50
2019-02-27T12:01:03.230Z,5.63
2019-02-27T12:03:36.474Z,4.67
2019-02-27T12:06:11.928Z,3.33
2019-02-27T12:08:44.049Z,3.57
2019-02-27T12:11:16.481Z,8.73
2019-02-27T12:13:49.381Z,8.80
2019-02-27T12:16:22.564Z,5.40
2019-02-27T12:18:55.364Z,5.80
2019-02-27T12:21:28.360Z,7.77
2019-02-27T12:24:01.434Z,9.87
2019-02-27T12:26:34.421Z,5.53
2019-02-27T12:29:08.086Z,5.50
2019-02-27T12:31:40.567Z,6.73
2019-02-27T12:34:16.906Z,7.07
2019-02-27T12:36:49.938Z,8.00
2019-02-27T12:39:21.831Z,8.07
2019-02-27T12:41:55.461Z,6.30
2019-02-27T12:44:28.375Z,5.87
2019-02-27T12:47:05.561Z,7.57
2019-02-27T12:49:37.031Z,6.97
2019-02-27T12:52:12.113Z,8.57
2019-02-27T12:54:43.639Z,11.00
2019-02-27T12:57:18.263Z,12.17
2019-02-27T12:59:50.353Z,8.13
2019-02-27T13:02:35.294Z,11.10
2019-02-27T13:05:03.393Z,6.30
2019-02-27T13:07:35.587Z,9.43
2019-02-27T13:10:13.322Z,8.17
2019-02-27T13:12:49.230Z,6.70
2019-02-27T13:15:24.670Z,8.80
2019-02-27T13:17:58.856Z,7.87
2019-02-27T13:20:30.132Z,7.73
2019-02-27T13:23:05.164Z,8.60
2019-02-27T13:25:37.119Z,6.40
2019-02-27T13:28:09.808Z,13.03
2019-02-27T13:30:43.761Z,14.90
2019-02-27T13:33:17.969Z,9.67
2019-02-27T13:35:49.656Z,10.93
2019-02-27T13:38:24.431Z,10.90
2019-02-27T13:40:55.694Z,8.70
2019-02-27T13:43:30.184Z,6.20
2019-02-27T13:46:02.344Z,8.07
2019-02-27T13:48:34.132Z,8.60
2019-02-27T13:51:06.702Z,13.70
2019-02-27T13:53:37.922Z,8.20
2019-02-27T13:56:09.669Z,8.40
2019-02-27T13:58:44.587Z,5.87
2019-02-27T14:01:16.007Z,6.87
2019-02-27T14:03:49.888Z,8.33
2019-02-27T14:06:22.916Z,10.53
2019-02-27T14:08:54.346Z,8.70
2019-02-27T14:11:26.867Z,9.23
2019-02-27T14:14:00.518Z,9.30
2019-02-27T14:16:34.743Z,8.93
2019-02-27T14:19:07.900Z,12.10
2019-02-27T14:21:41.285Z,13.77
2019-02-27T14:24:20.205Z,7.60
2019-02-27T14:26:50.341Z,13.13
2019-02-27T14:29:22.956Z,7.33
2019-02-27T14:31:56.597Z,12.13
2019-02-27T14:34:28.977Z,9.03
2019-02-27T14:37:01.078Z,9.00
2019-02-27T14:39:35.383Z,11.20
2019-02-27T14:42:08.560Z,9.50
2019-02-27T14:44:41.134Z,9.33
2019-02-27T14:47:16.407Z,10.03
2019-02-27T14:49:49.300Z,8.97
2019-02-27T14:52:24.793Z,8.27
2019-02-27T14:54:55.976Z,12.10
2019-02-27T14:57:28.379Z,15.30
2019-02-27T15:00:05.662Z,14.67
2019-02-27T15:02:37.832Z,9.00
2019-02-27T15:05:09.272Z,8.90
2019-02-27T15:07:41.869Z,12.40
2019-02-27T15:10:16.162Z,11.47
2019-02-27T15:12:54.321Z,19.93
2019-02-27T15:15:26.886Z,8.67
2019-02-27T15:17:59.393Z,10.70
2019-02-27T15:20:31.403Z,10.00
2019-02-27T15:23:05.440Z,11.80
2019-02-27T15:25:42.217Z,7.40
2019-02-27T15:28:14.148Z,8.90
2019-02-27T15:30:47.434Z,8.17
2019-02-27T15:33:19.270Z,13.03
2019-02-27T15:35:55.140Z,8.23
2019-02-27T15:38:24.209Z,10.87
2019-02-27T15:40:56.188Z,10.17
2019-02-27T15:43:28.406Z,12.20
2019-02-27T15:46:00.751Z,11.30
2019-02-27T15:48:33.464Z,19.67
2019-02-27T15:51:07.295Z,25.40
2019-02-27T15:53:41.371Z,22.73
2019-02-27T15:56:14.344Z,34.90
2019-02-27T15:58:47.339Z,23.73
2019-02-27T16:01:20.336Z,34.33
2019-02-27T16:03:52.842Z,39.27
2019-02-27T16:06:25.655Z,72.33
2019-02-27T16:08:58.239Z,41.40
2019-02-27T16:11:30.766Z,18.80
2019-02-27T16:14:09.161Z,16.80
2019-02-27T16:16:37.847Z,37.83
2019-02-27T16:19:14.804Z,31.83
2019-02-27T16:21:46.366Z,32.27
2019-02-27T16:24:19.586Z,28.97
2019-02-27T16:26:52.587Z,16.13
2019-02-27T16:29:24.512Z,22.97
2019-02-27T16:31:58.407Z,30.70
2019-02-27T16:34:33.162Z,43.27
2019-02-27T16:37:04.515Z,25.73
2019-02-27T16:39:41.420Z,38.67
2019-02-27T16:42:11.516Z,17.50
2019-02-27T16:44:43.775Z,22.13
2019-02-27T16:47:19.912Z,25.90
2019-02-27T16:49:54.246Z,21.67
2019-02-27T16:52:27.718Z,30.03
2019-02-27T16:55:03.158Z,34.63
2019-02-27T16:57:35.066Z,62.70
2019-02-27T17:00:10.094Z,32.47
2019-02-27T17:02:44.255Z,34.80
2019-02-27T17:05:18.276Z,20.33
2019-02-27T17:07:51.449Z,12.57
2019-02-27T17:10:29.347Z,18.43
2019-02-27T17:13:02.871Z,12.83
2019-02-27T17:15:36.923Z,23.43
2019-02-27T17:18:08.306Z,30.57
2019-02-27T17:20:45.842Z,24.27
2019-02-27T17:23:14.776Z,25.03
2019-02-27T17:25:47.772Z,35.50
2019-02-27T17:28:19.736Z,13.63
2019-02-27T17:30:51.838Z,17.70
2019-02-27T17:33:23.830Z,12.97
2019-02-27T17:35:59.253Z,17.17
2019-02-27T17:38:30.704Z,21.13
2019-02-27T17:41:04.792Z,15.07
2019-02-27T17:43:37.102Z,10.23
2019-02-27T17:46:09.012Z,9.03
2019-02-27T17:48:43.315Z,7.30
2019-02-27T17:51:13.924Z,8.90
2019-02-27T17:53:46.977Z,12.93
2019-02-27T17:56:21.023Z,8.17
2019-02-27T17:58:52.968Z,11.30
2019-02-27T18:01:26.072Z,8.67
2019-02-27T18:04:01.709Z,17.00
2019-02-27T18:06:34.823Z,9.03
2019-02-27T18:09:10.197Z,7.87
2019-02-27T18:11:45.481Z,8.50
2019-02-27T18:14:20.241Z,9.13
2019-02-27T18:16:54.672Z,9.30
2019-02-27T18:19:26.011Z,7.63
2019-02-27T18:21:59.190Z,10.00
2019-02-27T18:24:34.185Z,11.03
2019-02-27T18:27:06.071Z,12.33
2019-02-27T18:29:38.310Z,18.97
2019-02-27T18:32:10.374Z,33.13
2019-02-27T18:34:44.159Z,10.50
2019-02-27T18:37:18.995Z,14.50
2019-02-27T18:39:52.276Z,12.87
2019-02-27T18:42:24.179Z,8.30
2019-02-27T18:44:57.021Z,9.80
2019-02-27T18:47:32.092Z,9.33
2019-02-27T18:50:03.279Z,8.27
2019-02-27T18:52:38.210Z,10.23
2019-02-27T18:55:11.051Z,11.20
2019-02-27T18:57:47.254Z,5.60
2019-02-27T19:00:22.000Z,9.90
2019-02-27T19:02:57.116Z,8.63
2019-02-27T19:05:30.626Z,8.73
2019-02-27T19:08:04.960Z,10.47
2019-02-27T19:10:41.423Z,11.70
2019-02-27T19:13:12.383Z,12.13
2019-02-27T19:15:46.281Z,14.00
2019-02-27T19:18:20.266Z,10.40
2019-02-27T19:20:53.339Z,14.30
2019-02-27T19:23:25.732Z,17.23
2019-02-27T19:26:00.020Z,20.27
2019-02-27T19:28:31.221Z,11.07
2019-02-27T19:31:05.453Z,14.60
2019-02-27T19:33:37.675Z,12.30
2019-02-27T19:36:18.958Z,4.97
2019-02-27T19:38:47.708Z,9.73
2019-02-27T19:41:19.437Z,7.80
2019-02-27T19:44:08.708Z,13.77
2019-02-27T19:46:42.332Z,8.43
2019-02-27T19:49:15.889Z,8.93
2019-02-27T19:51:52.152Z,7.93
2019-02-27T19:54:23.552Z,5.33
2019-02-27T19:56:59.006Z,4.50
2019-02-27T19:59:30.277Z,5.40
2019-02-27T20:02:02.345Z,8.47
2019-02-27T20:04:33.609Z,8.37
2019-02-27T20:07:06.998Z,8.97
2019-02-27T20:09:42.044Z,10.30
2019-02-27T20:12:15.907Z,7.17
2019-02-27T20:14:49.329Z,5.33
2019-02-27T20:17:22.468Z,8.47
2019-02-27T20:19:54.680Z,15.57
2019-02-27T20:22:26.626Z,9.63
2019-02-27T20:25:02.198Z,4.77
2019-02-27T20:27:33.690Z,7.27
2019-02-27T20:30:05.776Z,7.00
2019-02-27T20:32:40.261Z,5.20
2019-02-27T20:35:13.424Z,13.50
2019-02-27T20:37:45.687Z,8.83
2019-02-27T20:40:17.817Z,34.57
2019-02-27T20:42:54.431Z,41.60
2019-02-27T20:45:23.767Z,25.53
2019-02-27T20:48:01.900Z,32.30
2019-02-27T20:50:39.669Z,13.90
2019-02-27T20:53:13.613Z,14.27
2019-02-27T20:55:46.759Z,11.17
2019-02-27T20:58:22.032Z,15.83
2019-02-27T21:00:54.363Z,11.30
2019-02-27T21:03:28.060Z,10.50
2019-02-27T21:06:02.989Z,7.17
2019-02-27T21:08:37.183Z,9.00
2019-02-27T21:11:12.122Z,9.87
2019-02-27T21:13:49.331Z,8.97
2019-02-27T21:16:18.824Z,8.67
2019-02-27T21:18:52.938Z,6.83
2019-02-27T21:21:26.850Z,9.30
2019-02-27T21:23:58.862Z,16.30
2019-02-27T21:26:32.857Z,10.50
2019-02-27T21:29:08.786Z,8.10
2019-02-27T21:31:44.425Z,32.60
2019-02-27T21:34:20.111Z,27.53
2019-02-27T21:36:50.696Z,7.40
2019-02-27T21:39:25.236Z,7.60
2019-02-27T21:41:58.799Z,17.07
2019-02-27T21:44:34.331Z,19.97
2019-02-27T21:47:05.799Z,27.13
2019-02-27T21:49:39.866Z,12.90
2019-02-27T21:52:15.341Z,12.43
2019-02-27T21:54:47.823Z,16.80
2019-02-27T21:57:19.772Z,44.03
2019-02-27T21:59:51.962Z,18.63
2019-02-27T22:02:27.202Z,29.67
2019-02-27T22:04:57.958Z,14.27
2019-02-27T22:07:47.646Z,13.57
2019-02-27T22:10:32.461Z,16.83
2019-02-27T22:13:09.373Z,20.97
2019-02-27T22:15:41.902Z,14.13
2019-02-27T22:18:15.112Z,17.10
2019-02-27T22:20:49.715Z,14.50
2019-02-27T22:23:20.973Z,24.77
2019-02-27T22:25:52.299Z,64.97
2019-02-27T22:28:25.238Z,67.80
2019-02-27T22:30:58.950Z,31.90
2019-02-27T22:33:32.751Z,17.13
2019-02-27T22:36:06.088Z,9.70
2019-02-27T22:38:39.117Z,9.97
2019-02-27T22:41:12.128Z,12.43
2019-02-27T22:43:45.082Z,13.90
2019-02-27T22:46:18.025Z,16.13
2019-02-27T22:48:51.017Z,11.50
2019-02-27T22:51:22.975Z,17.53
2019-02-27T22:53:54.459Z,17.37
2019-02-27T22:56:27.957Z,20.93
2019-02-27T22:59:03.107Z,19.63
2019-02-27T23:01:43.486Z,15.87
2019-02-27T23:04:18.341Z,10.03
2019-02-27T23:06:51.470Z,11.50
2019-02-27T23:09:25.611Z,11.83
2019-02-27T23:11:57.024Z,12.33
2019-02-27T23:14:29.081Z,9.90
2019-02-27T23:17:03.028Z,8.40
2019-02-27T23:19:36.290Z,8.07
2019-02-27T23:22:10.548Z,11.20
2019-02-27T23:24:43.882Z,10.30
2019-02-27T23:27:15.306Z,8.60
2019-02-27T23:29:48.156Z,16.57
2019-02-27T23:32:21.164Z,15.13
2019-02-27T23:34:55.626Z,10.80
2019-02-27T23:37:29.569Z,8.43
2019-02-27T23:40:03.544Z,8.10
2019-02-27T23:42:37.835Z,13.03
2019-02-27T23:45:11.136Z,10.37
2019-02-27T23:47:45.274Z,10.20
2019-02-27T23:50:19.404Z,9.47
2019-02-27T23:52:53.233Z,7.33
2019-02-27T23:55:25.330Z,10.47
2019-02-27T23:57:59.352Z,5.80
